createdAt,value
2023-03-28T00:01:11.902Z,4.70
2023-03-28T00:03:40.664Z,4.67
2023-03-28T00:06:13.895Z,4.61
2023-03-28T00:08:42.186Z,4.56
2023-03-28T00:11:20.045Z,4.57
2023-03-28T00:14:00.858Z,4.52
2023-03-28T00:16:34.119Z,4.47
2023-03-28T00:19:06.479Z,4.41
2023-03-28T00:21:39.809Z,4.33
2023-03-28T00:24:13.769Z,4.39
2023-03-28T00:26:44.835Z,4.36
2023-03-28T00:29:21.665Z,4.34
2023-03-28T00:31:50.794Z,4.34
2023-03-28T00:34:18.864Z,4.35
2023-03-28T00:36:47.880Z,4.34
2023-03-28T00:39:15.684Z,4.29
2023-03-28T00:41:45.134Z,4.24
2023-03-28T00:44:55.169Z,4.25
2023-03-28T00:47:41.486Z,4.20
2023-03-28T00:50:36.987Z,4.21
2023-03-28T00:53:21.429Z,4.24
2023-03-28T00:55:58.864Z,4.24
2023-03-28T00:58:32.706Z,4.18
2023-03-28T01:01:00.995Z,4.21
2023-03-28T01:03:35.834Z,4.19
2023-03-28T01:06:08.815Z,4.24
2023-03-28T01:08:41.703Z,4.19
2023-03-28T01:11:12.736Z,4.12
2023-03-28T01:13:50.727Z,4.08
2023-03-28T01:16:22.509Z,4.16
2023-03-28T01:18:52.818Z,4.16
2023-03-28T01:21:42.213Z,4.11
2023-03-28T01:24:41.217Z,4.11
2023-03-28T01:27:41.228Z,4.12
2023-03-28T01:30:37.054Z,4.12
2023-03-28T01:34:18.052Z,4.14
2023-03-28T01:36:58.871Z,4.14
2023-03-28T01:39:57.021Z,4.15
2023-03-28T01:43:17.745Z,4.14
2023-03-28T01:45:58.288Z,4.21
2023-03-28T01:48:56.156Z,4.24
2023-03-28T01:51:58.550Z,4.31
2023-03-28T01:54:44.374Z,4.34
2023-03-28T01:57:39.368Z,4.30
2023-03-28T02:00:29.393Z,4.35
2023-03-28T02:03:18.907Z,4.39
2023-03-28T02:06:12.332Z,4.40
2023-03-28T02:08:46.460Z,4.41
2023-03-28T02:11:20.002Z,4.40
2023-03-28T02:14:08.687Z,4.38
2023-03-28T02:16:51.458Z,4.35
2023-03-28T02:19:39.372Z,4.37
2023-03-28T02:22:35.420Z,4.37
2023-03-28T02:25:32.261Z,4.32
2023-03-28T02:28:23.218Z,4.31
2023-03-28T02:31:16.076Z,4.36
2023-03-28T02:33:49.741Z,4.37
2023-03-28T02:37:06.762Z,4.38
2023-03-28T02:40:14.301Z,4.37
2023-03-28T02:43:29.753Z,4.33
2023-03-28T02:46:25.874Z,4.37
2023-03-28T02:50:00.666Z,4.40
2023-03-28T02:52:52.373Z,4.45
2023-03-28T02:55:40.224Z,4.47
2023-03-28T02:58:55.560Z,4.48
2023-03-28T03:01:25.634Z,4.51
2023-03-28T03:03:54.469Z,4.52
2023-03-28T03:06:24.020Z,4.57
2023-03-28T03:08:51.822Z,4.61
2023-03-28T03:11:20.079Z,4.66
2023-03-28T03:13:48.442Z,4.72
2023-03-28T03:16:16.374Z,4.74
2023-03-28T03:18:44.524Z,4.76
2023-03-28T03:21:12.594Z,4.79
2023-03-28T03:23:42.424Z,4.80
2023-03-28T03:26:10.861Z,4.80
2023-03-28T03:28:44.651Z,4.78
2023-03-28T03:31:12.563Z,4.76
2023-03-28T03:34:15.739Z,4.78
2023-03-28T03:36:47.043Z,4.79
2023-03-28T03:39:14.831Z,4.77
2023-03-28T03:41:42.629Z,4.77
2023-03-28T03:44:10.622Z,4.77
2023-03-28T03:46:38.559Z,4.80
2023-03-28T03:49:06.548Z,4.85
2023-03-28T03:51:34.640Z,4.84
2023-03-28T03:54:02.857Z,4.87
2023-03-28T03:56:38.400Z,4.89
2023-03-28T03:59:06.537Z,4.95
2023-03-28T04:01:39.501Z,4.99
2023-03-28T04:04:33.917Z,5.02
2023-03-28T04:07:15.835Z,5.04
2023-03-28T04:09:43.690Z,5.06
2023-03-28T04:12:12.370Z,5.12
2023-03-28T04:14:46.785Z,5.13
2023-03-28T04:17:30.005Z,5.15
2023-03-28T04:19:58.731Z,5.17
2023-03-28T04:22:29.797Z,5.18
2023-03-28T04:24:58.181Z,5.21
2023-03-28T04:27:37.447Z,5.26
2023-03-28T04:30:07.246Z,5.33
2023-03-28T04:33:04.296Z,5.38
2023-03-28T04:35:37.913Z,5.36
2023-03-28T04:38:06.165Z,5.39
2023-03-28T04:40:34.016Z,5.42
2023-03-28T04:43:29.184Z,5.46
2023-03-28T04:45:58.918Z,5.46
2023-03-28T04:48:27.794Z,5.47
2023-03-28T04:50:56.134Z,5.46
2023-03-28T04:53:24.304Z,5.48
2023-03-28T04:56:13.809Z,5.50
2023-03-28T04:58:42.009Z,5.53
2023-03-28T05:01:11.840Z,5.57
2023-03-28T05:03:48.835Z,5.56
2023-03-28T05:06:16.640Z,5.57
2023-03-28T05:08:44.597Z,5.59
2023-03-28T05:11:13.148Z,5.61
2023-03-28T05:13:41.071Z,5.68
2023-03-28T05:16:17.330Z,5.74
2023-03-28T05:19:14.590Z,5.75
2023-03-28T05:21:52.493Z,5.76
2023-03-28T05:24:20.888Z,5.75
2023-03-28T05:26:48.932Z,5.77
2023-03-28T05:29:16.942Z,5.78
2023-03-28T05:31:47.199Z,5.79
2023-03-28T05:34:22.555Z,5.80
2023-03-28T05:36:51.219Z,5.80
2023-03-28T05:39:35.896Z,5.79
2023-03-28T05:42:06.127Z,5.78
2023-03-28T05:44:36.354Z,5.76
2023-03-28T05:47:24.327Z,5.74
2023-03-28T05:49:54.813Z,5.76
2023-03-28T05:52:22.949Z,5.78
2023-03-28T05:54:52.083Z,5.79
2023-03-28T05:57:22.415Z,5.78
2023-03-28T05:59:50.251Z,5.81
2023-03-28T06:02:23.608Z,5.89
2023-03-28T06:04:54.610Z,5.95
2023-03-28T06:07:35.360Z,6.02
2023-03-28T06:10:13.198Z,6.07
2023-03-28T06:12:42.331Z,6.13
2023-03-28T06:15:11.706Z,6.23
2023-03-28T06:17:40.601Z,6.28
2023-03-28T06:20:12.326Z,6.30
2023-03-28T06:22:40.646Z,6.32
2023-03-28T06:25:10.458Z,6.34
2023-03-28T06:27:38.722Z,6.37
2023-03-28T06:30:07.638Z,6.41
2023-03-28T06:32:42.815Z,6.43
2023-03-28T06:35:10.825Z,6.46
2023-03-28T06:37:38.680Z,6.45
2023-03-28T06:40:09.634Z,6.48
2023-03-28T06:42:37.794Z,6.44
2023-03-28T06:45:17.992Z,6.41
2023-03-28T06:47:51.741Z,6.39
2023-03-28T06:50:23.594Z,6.39
2023-03-28T06:52:55.347Z,6.40
2023-03-28T06:55:23.330Z,6.43
2023-03-28T06:57:51.287Z,6.43
2023-03-28T07:00:30.338Z,6.44
2023-03-28T07:03:31.152Z,6.45
2023-03-28T07:06:04.516Z,6.48
2023-03-28T07:08:33.418Z,6.49
2023-03-28T07:11:01.846Z,6.52
2023-03-28T07:13:30.226Z,6.56
2023-03-28T07:16:11.305Z,6.59
2023-03-28T07:18:41.151Z,6.64
2023-03-28T07:21:12.943Z,6.66
2023-03-28T07:23:40.870Z,6.72
2023-03-28T07:26:11.119Z,6.81
2023-03-28T07:28:41.112Z,6.89
2023-03-28T07:31:09.394Z,6.97
2023-03-28T07:33:38.790Z,7.05
2023-03-28T07:36:16.509Z,7.10
2023-03-28T07:38:48.827Z,7.15
2023-03-28T07:41:18.163Z,7.25
2023-03-28T07:43:46.026Z,7.37
2023-03-28T07:46:16.064Z,7.45
2023-03-28T07:48:46.489Z,7.47
2023-03-28T07:51:16.147Z,7.57
2023-03-28T07:53:44.189Z,7.61
2023-03-28T07:56:12.546Z,7.58
2023-03-28T07:59:16.883Z,7.60
2023-03-28T08:01:46.886Z,7.61
2023-03-28T08:04:14.777Z,7.65
2023-03-28T08:06:52.834Z,7.64
2023-03-28T08:09:21.163Z,7.63
2023-03-28T08:11:55.547Z,7.63
2023-03-28T08:14:23.348Z,7.66
2023-03-28T08:16:52.074Z,7.73
2023-03-28T08:19:20.184Z,7.78
2023-03-28T08:22:17.315Z,7.91
2023-03-28T08:25:09.565Z,7.97
2023-03-28T08:27:38.236Z,8.05
2023-03-28T08:30:10.936Z,8.16
2023-03-28T08:32:48.225Z,8.28
2023-03-28T08:35:17.182Z,8.34
2023-03-28T08:37:45.786Z,8.41
2023-03-28T08:40:18.982Z,8.50
2023-03-28T08:43:24.632Z,8.61
2023-03-28T08:45:56.788Z,8.72
2023-03-28T08:48:34.443Z,8.82
2023-03-28T08:51:20.620Z,8.88
2023-03-28T08:54:46.110Z,8.80
2023-03-28T08:57:25.256Z,8.73
2023-03-28T09:00:14.088Z,8.66
2023-03-28T09:02:44.286Z,8.63
2023-03-28T09:05:29.312Z,8.66
2023-03-28T09:08:19.963Z,8.70
2023-03-28T09:11:26.269Z,8.70
2023-03-28T09:14:31.191Z,8.69
2023-03-28T09:17:29.709Z,8.71
2023-03-28T09:20:33.919Z,8.74
2023-03-28T09:23:37.491Z,8.79
2023-03-28T09:26:32.928Z,8.88
2023-03-28T09:29:24.713Z,8.98
2023-03-28T09:32:03.110Z,9.12
2023-03-28T09:34:48.128Z,9.19
2023-03-28T09:37:46.985Z,9.20
2023-03-28T09:40:22.949Z,9.23
2023-03-28T09:43:47.328Z,9.23
2023-03-28T09:46:39.706Z,9.12
2023-03-28T09:49:25.637Z,9.03
2023-03-28T09:52:14.661Z,8.97
2023-03-28T09:54:43.072Z,8.94
2023-03-28T09:57:11.120Z,8.91
2023-03-28T09:59:50.266Z,8.91
2023-03-28T10:02:29.271Z,8.94
2023-03-28T10:04:59.613Z,8.96
2023-03-28T10:07:29.422Z,8.95
2023-03-28T10:10:19.621Z,8.92
2023-03-28T10:12:49.425Z,8.90
2023-03-28T10:15:33.981Z,8.85
2023-03-28T10:18:28.663Z,8.88
2023-03-28T10:21:21.166Z,8.89
2023-03-28T10:24:07.346Z,8.88
2023-03-28T10:26:36.324Z,8.90
2023-03-28T10:29:10.305Z,8.91
2023-03-28T10:31:39.812Z,8.89
2023-03-28T10:34:30.452Z,8.79
2023-03-28T10:37:46.554Z,8.71
2023-03-28T10:40:32.669Z,8.67
2023-03-28T10:43:03.711Z,8.69
2023-03-28T10:46:31.996Z,8.70
2023-03-28T10:49:20.855Z,8.82
2023-03-28T10:51:57.049Z,9.02
2023-03-28T10:55:10.540Z,9.17
2023-03-28T10:58:33.103Z,9.24
2023-03-28T11:01:19.551Z,9.27
2023-03-28T11:04:24.488Z,9.32
2023-03-28T11:07:08.462Z,9.36
2023-03-28T11:10:19.314Z,9.40
2023-03-28T11:13:13.812Z,9.44
2023-03-28T11:16:41.303Z,9.40
2023-03-28T11:19:42.897Z,9.18
2023-03-28T11:23:02.769Z,9.10
2023-03-28T11:25:49.707Z,8.88
2023-03-28T11:29:10.234Z,8.77
2023-03-28T11:31:47.394Z,8.64
2023-03-28T11:34:23.078Z,8.53
2023-03-28T11:37:01.148Z,8.44
2023-03-28T11:39:58.858Z,8.33
2023-03-28T11:42:45.220Z,8.20
2023-03-28T11:45:41.965Z,8.09
2023-03-28T11:48:48.076Z,8.04
2023-03-28T11:51:34.496Z,8.04
2023-03-28T11:54:48.663Z,8.10
2023-03-28T11:58:10.367Z,8.42
2023-03-28T12:00:52.389Z,8.83
2023-03-28T12:03:33.466Z,9.12
2023-03-28T12:06:14.284Z,9.32
2023-03-28T12:08:54.388Z,9.50
2023-03-28T12:12:16.228Z,9.60
2023-03-28T12:15:22.503Z,9.61
2023-03-28T12:18:42.266Z,9.39
2023-03-28T12:21:37.028Z,9.27
2023-03-28T12:24:38.364Z,9.16
2023-03-28T12:27:19.951Z,9.18
2023-03-28T12:30:39.145Z,9.38
2023-03-28T12:33:32.845Z,9.55
2023-03-28T12:36:28.560Z,9.64
2023-03-28T12:39:38.790Z,9.66
2023-03-28T12:42:19.371Z,9.73
2023-03-28T12:45:01.275Z,9.82
2023-03-28T12:48:03.565Z,10.02
2023-03-28T12:50:56.305Z,10.22
2023-03-28T12:53:24.947Z,10.31
2023-03-28T12:55:53.265Z,10.28
2023-03-28T12:58:23.647Z,10.21
2023-03-28T13:01:09.569Z,10.09
2023-03-28T13:04:06.513Z,9.90
2023-03-28T13:07:36.351Z,9.52
2023-03-28T13:10:20.250Z,9.22
2023-03-28T13:13:12.986Z,9.06
2023-03-28T13:16:23.647Z,8.99
2023-03-28T13:19:11.832Z,8.98
2023-03-28T13:21:49.892Z,9.05
2023-03-28T13:24:37.120Z,9.26
2023-03-28T13:27:27.785Z,9.52
2023-03-28T13:30:05.250Z,9.68
2023-03-28T13:32:46.608Z,9.73
2023-03-28T13:35:45.619Z,9.77
2023-03-28T13:38:23.099Z,9.78
2023-03-28T13:41:00.830Z,9.76
2023-03-28T13:43:35.270Z,9.78
2023-03-28T13:46:20.096Z,9.86
2023-03-28T13:49:10.707Z,9.97
2023-03-28T13:51:56.917Z,10.07
2023-03-28T13:54:28.281Z,10.23
2023-03-28T13:57:02.561Z,10.36
2023-03-28T13:59:48.643Z,10.44
2023-03-28T14:02:40.745Z,10.44
2023-03-28T14:05:19.557Z,10.33
2023-03-28T14:07:48.327Z,10.20
2023-03-28T14:10:41.419Z,10.11
2023-03-28T14:13:18.570Z,10.06
2023-03-28T14:15:46.900Z,10.03
2023-03-28T14:18:45.412Z,9.95
2023-03-28T14:21:14.263Z,9.90
2023-03-28T14:24:01.687Z,9.98
2023-03-28T14:26:33.933Z,10.03
2023-03-28T14:29:07.636Z,10.09
2023-03-28T14:31:46.279Z,10.11
2023-03-28T14:34:26.354Z,10.14
2023-03-28T14:36:58.960Z,10.14
2023-03-28T14:39:31.354Z,10.13
2023-03-28T14:42:12.464Z,10.07
2023-03-28T14:44:44.897Z,9.98
2023-03-28T14:47:33.400Z,9.98
2023-03-28T14:50:03.640Z,10.00
2023-03-28T14:52:36.601Z,10.01
2023-03-28T14:55:06.304Z,10.02
2023-03-28T14:57:34.816Z,10.02
2023-03-28T15:00:12.438Z,9.98
2023-03-28T15:02:42.206Z,10.02
2023-03-28T15:05:16.309Z,10.01
2023-03-28T15:07:45.403Z,9.98
2023-03-28T15:10:19.696Z,9.89
2023-03-28T15:13:04.519Z,9.78
2023-03-28T15:15:36.936Z,9.74
2023-03-28T15:18:12.179Z,9.71
2023-03-28T15:20:45.593Z,9.64
2023-03-28T15:23:27.725Z,9.67
2023-03-28T15:26:00.747Z,9.65
2023-03-28T15:28:30.057Z,9.58
2023-03-28T15:31:02.690Z,9.49
2023-03-28T15:33:35.019Z,9.39
2023-03-28T15:36:19.196Z,9.32
2023-03-28T15:38:52.069Z,9.28
2023-03-28T15:41:31.841Z,9.31
2023-03-28T15:44:26.414Z,9.37
2023-03-28T15:47:00.632Z,9.42
2023-03-28T15:49:34.136Z,9.47
2023-03-28T15:52:15.270Z,9.48
2023-03-28T15:54:52.185Z,9.46
2023-03-28T15:57:27.585Z,9.45
2023-03-28T15:59:58.066Z,9.36
2023-03-28T16:02:26.136Z,9.27
2023-03-28T16:05:34.935Z,9.17
2023-03-28T16:08:21.426Z,9.10
2023-03-28T16:10:49.320Z,9.07
2023-03-28T16:13:35.899Z,9.04
2023-03-28T16:16:28.522Z,9.03
2023-03-28T16:19:30.769Z,8.96
2023-03-28T16:22:00.957Z,8.92
2023-03-28T16:24:28.976Z,8.91
2023-03-28T16:26:56.821Z,8.91
2023-03-28T16:29:24.612Z,8.93
2023-03-28T16:31:52.448Z,8.93
2023-03-28T16:34:20.433Z,8.93
2023-03-28T16:36:48.881Z,8.88
2023-03-28T16:39:16.629Z,8.81
2023-03-28T16:41:44.363Z,8.78
2023-03-28T16:44:12.249Z,8.72
2023-03-28T16:46:40.910Z,8.68
2023-03-28T16:49:08.744Z,8.65
2023-03-28T16:51:36.587Z,8.63
2023-03-28T16:54:04.507Z,8.62
2023-03-28T16:56:33.227Z,8.60
2023-03-28T16:59:01.000Z,8.60
2023-03-28T17:01:28.765Z,8.59
2023-03-28T17:03:56.573Z,8.56
2023-03-28T17:06:25.109Z,8.57
2023-03-28T17:08:54.406Z,8.56
2023-03-28T17:11:23.300Z,8.58
2023-03-28T17:13:54.678Z,8.57
2023-03-28T17:16:23.642Z,8.59
2023-03-28T17:18:51.820Z,8.59
2023-03-28T17:21:19.792Z,8.56
2023-03-28T17:23:49.236Z,8.55
2023-03-28T17:26:18.045Z,8.54
2023-03-28T17:28:46.015Z,8.51
2023-03-28T17:31:18.860Z,8.49
2023-03-28T17:33:48.041Z,8.50
2023-03-28T17:36:30.048Z,8.50
2023-03-28T17:39:02.086Z,8.51
2023-03-28T17:41:30.935Z,8.50
2023-03-28T17:44:00.008Z,8.48
2023-03-28T17:46:28.042Z,8.46
2023-03-28T17:48:56.115Z,8.42
2023-03-28T17:51:24.794Z,8.40
2023-03-28T17:53:53.644Z,8.37
2023-03-28T17:56:22.322Z,8.35
2023-03-28T17:58:50.881Z,8.33
2023-03-28T18:01:19.806Z,8.30
2023-03-28T18:03:47.946Z,8.30
2023-03-28T18:06:35.790Z,8.29
2023-03-28T18:09:04.889Z,8.28
2023-03-28T18:11:34.511Z,8.26
2023-03-28T18:14:03.517Z,8.26
2023-03-28T18:16:33.025Z,8.27
2023-03-28T18:19:01.554Z,8.26
2023-03-28T18:21:30.128Z,8.26
2023-03-28T18:23:58.369Z,8.26
2023-03-28T18:26:29.005Z,8.26
2023-03-28T18:28:57.866Z,8.27
2023-03-28T18:31:28.382Z,8.26
2023-03-28T18:33:57.962Z,8.27
2023-03-28T18:36:26.500Z,8.28
2023-03-28T18:38:56.130Z,8.28
2023-03-28T18:41:25.613Z,8.28
2023-03-28T18:43:54.387Z,8.28
2023-03-28T18:46:25.628Z,8.29
2023-03-28T18:48:55.113Z,8.27
2023-03-28T18:51:24.082Z,8.27
2023-03-28T18:53:54.338Z,8.26
2023-03-28T18:56:24.118Z,8.25
2023-03-28T18:58:53.182Z,8.28
2023-03-28T19:01:23.508Z,8.34
2023-03-28T19:03:52.670Z,8.31
2023-03-28T19:06:23.104Z,8.30
2023-03-28T19:08:52.225Z,8.28
2023-03-28T19:11:21.678Z,8.26
2023-03-28T19:13:50.768Z,8.26
2023-03-28T19:16:19.500Z,8.24
2023-03-28T19:18:48.231Z,8.24
2023-03-28T19:21:17.360Z,8.23
2023-03-28T19:23:48.847Z,8.23
2023-03-28T19:26:18.503Z,8.23
2023-03-28T19:28:47.468Z,8.25
2023-03-28T19:31:16.902Z,8.24
2023-03-28T19:33:45.091Z,8.24
2023-03-28T19:36:16.454Z,8.24
2023-03-28T19:38:45.206Z,8.24
2023-03-28T19:41:24.677Z,8.23
2023-03-28T19:43:53.515Z,8.25
2023-03-28T19:46:35.442Z,8.28
2023-03-28T19:49:06.616Z,8.29
2023-03-28T19:51:35.606Z,8.29
2023-03-28T19:54:04.509Z,8.28
2023-03-28T19:56:33.094Z,8.27
2023-03-28T19:59:02.704Z,8.25
2023-03-28T20:01:31.610Z,8.25
2023-03-28T20:04:00.668Z,8.24
2023-03-28T20:06:30.354Z,8.24
2023-03-28T20:08:59.287Z,8.26
2023-03-28T20:11:28.214Z,8.26
2023-03-28T20:13:57.611Z,8.28
2023-03-28T20:16:27.859Z,8.27
2023-03-28T20:18:56.701Z,8.21
2023-03-28T20:21:25.333Z,8.19
2023-03-28T20:23:54.258Z,8.17
2023-03-28T20:26:27.253Z,8.13
2023-03-28T20:28:59.748Z,8.10
2023-03-28T20:31:29.581Z,8.07
2023-03-28T20:33:58.280Z,8.08
2023-03-28T20:36:27.291Z,8.08
2023-03-28T20:38:56.800Z,8.08
2023-03-28T20:41:29.292Z,8.07
2023-03-28T20:44:03.346Z,8.07
2023-03-28T20:46:34.741Z,8.06
2023-03-28T20:49:07.943Z,8.05
2023-03-28T20:51:39.390Z,8.07
2023-03-28T20:54:07.658Z,8.08
2023-03-28T20:56:36.204Z,8.07
2023-03-28T20:59:05.945Z,8.08
2023-03-28T21:01:39.437Z,8.11
2023-03-28T21:04:08.628Z,8.11
2023-03-28T21:06:38.239Z,8.11
2023-03-28T21:09:10.171Z,8.12
2023-03-28T21:11:40.160Z,8.14
2023-03-28T21:14:11.975Z,8.15
2023-03-28T21:16:41.530Z,8.15
2023-03-28T21:19:10.169Z,8.16
2023-03-28T21:21:38.664Z,8.18
2023-03-28T21:24:08.344Z,8.17
2023-03-28T21:26:36.618Z,8.19
2023-03-28T21:29:04.922Z,8.23
2023-03-28T21:31:33.232Z,8.28
2023-03-28T21:34:02.005Z,8.32
2023-03-28T21:36:31.372Z,8.32
2023-03-28T21:38:59.488Z,8.31
2023-03-28T21:41:27.626Z,8.30
2023-03-28T21:43:56.662Z,8.28
2023-03-28T21:46:24.770Z,8.28
2023-03-28T21:48:52.762Z,8.27
2023-03-28T21:51:20.738Z,8.30
2023-03-28T21:53:48.547Z,8.31
2023-03-28T21:56:16.763Z,8.35
2023-03-28T21:58:44.846Z,8.34
2023-03-28T22:01:15.485Z,8.32
2023-03-28T22:03:48.308Z,8.31
2023-03-28T22:06:18.335Z,8.31
2023-03-28T22:08:51.751Z,8.34
2023-03-28T22:11:29.828Z,8.38
2023-03-28T22:14:02.886Z,8.38
2023-03-28T22:16:37.736Z,8.41
2023-03-28T22:19:08.855Z,8.41
2023-03-28T22:21:37.761Z,8.43
2023-03-28T22:24:12.760Z,8.44
2023-03-28T22:26:44.884Z,8.49
2023-03-28T22:29:12.797Z,8.52
2023-03-28T22:31:40.895Z,8.52
2023-03-28T22:34:09.052Z,8.51
2023-03-28T22:36:37.118Z,8.50
2023-03-28T22:39:07.378Z,8.51
2023-03-28T22:41:35.205Z,8.52
2023-03-28T22:44:03.232Z,8.53
2023-03-28T22:46:31.100Z,8.53
2023-03-28T22:48:58.924Z,8.56
2023-03-28T22:51:28.047Z,8.60
2023-03-28T22:54:00.337Z,8.61
2023-03-28T22:56:28.287Z,8.62
2023-03-28T22:58:57.471Z,8.62
2023-03-28T23:01:26.073Z,8.64
2023-03-28T23:03:54.641Z,8.65
2023-03-28T23:06:22.472Z,8.67
2023-03-28T23:08:50.246Z,8.67
2023-03-28T23:11:17.968Z,8.70
2023-03-28T23:13:46.225Z,8.71
2023-03-28T23:16:14.468Z,8.75
2023-03-28T23:18:43.209Z,8.82
2023-03-28T23:21:11.031Z,8.83
2023-03-28T23:23:39.012Z,8.87
2023-03-28T23:26:07.070Z,8.88
2023-03-28T23:28:35.424Z,8.90
2023-03-28T23:31:04.252Z,8.93
2023-03-28T23:33:32.628Z,8.92
2023-03-28T23:36:00.909Z,8.97
2023-03-28T23:38:29.295Z,9.00
2023-03-28T23:40:58.113Z,9.03
2023-03-28T23:43:26.190Z,9.04
2023-03-28T23:45:54.055Z,9.07
2023-03-28T23:48:21.990Z,9.06
2023-03-28T23:50:49.884Z,9.07
2023-03-28T23:53:17.648Z,9.06
2023-03-28T23:55:45.549Z,9.08
2023-03-28T23:58:13.345Z,9.14
